createdAt,value
2019-01-13T00:21:54.382Z,0.77
2019-01-13T00:24:23.768Z,0.50
2019-01-13T00:36:45.706Z,0.77
2019-01-13T00:39:14.811Z,0.40
2019-01-13T00:41:43.940Z,0.57
2019-01-13T00:49:09.852Z,0.60
2019-01-13T00:51:39.272Z,0.90
2019-01-13T00:54:08.413Z,0.70
2019-01-13T00:56:37.813Z,0.70
2019-01-13T00:59:06.884Z,0.50
2019-01-13T01:01:36.273Z,0.70
2019-01-13T01:04:05.470Z,1.10
2019-01-13T01:06:34.683Z,0.80
2019-01-13T01:09:05.511Z,0.80
2019-01-13T01:11:34.684Z,0.73
2019-01-13T01:14:04.050Z,0.50
2019-01-13T01:16:33.439Z,0.67
2019-01-13T01:19:02.666Z,0.83
2019-01-13T01:21:31.816Z,0.80
2019-01-13T01:24:01.220Z,1.00
2019-01-13T01:26:30.828Z,0.70
2019-01-13T01:29:00.240Z,0.70
2019-01-13T01:31:29.443Z,0.90
2019-01-13T01:56:12.391Z,0.80
2019-01-13T01:58:41.548Z,0.80
2019-01-13T02:01:10.694Z,1.20
2019-01-13T02:03:39.863Z,0.80
2019-01-13T02:06:09.331Z,0.77
2019-01-13T07:14:56.117Z,0.90
2019-01-13T07:17:25.171Z,0.60
2019-01-13T07:19:54.328Z,0.93
2019-01-13T09:20:56.901Z,0.47
2019-01-13T09:23:26.056Z,0.63
2019-01-13T09:25:55.151Z,0.40
2019-01-13T09:28:24.287Z,0.53
2019-01-13T09:30:53.399Z,0.43
2019-01-13T09:33:22.560Z,0.53
2019-01-13T09:35:52.224Z,0.47
2019-01-13T09:38:21.320Z,0.50
2019-01-13T09:40:50.469Z,0.93
2019-01-13T09:43:19.905Z,0.60
2019-01-13T09:45:49.031Z,0.43
2019-01-13T09:48:18.502Z,0.47
2019-01-13T09:50:47.590Z,0.70
2019-01-13T09:53:16.869Z,0.83
2019-01-13T09:55:45.990Z,0.40
2019-01-13T09:58:15.162Z,0.70
2019-01-13T10:00:44.298Z,0.63
2019-01-13T10:03:13.479Z,0.47
2019-01-13T10:05:43.464Z,0.80
2019-01-13T10:08:15.116Z,0.50
2019-01-13T10:10:44.289Z,0.60
2019-01-13T10:13:13.442Z,0.90
2019-01-13T10:15:42.866Z,0.67
2019-01-13T10:18:12.025Z,0.70
2019-01-13T10:20:41.339Z,0.87
2019-01-13T10:23:10.523Z,0.70
2019-01-13T10:25:39.587Z,0.80
2019-01-13T10:28:09.026Z,0.70
2019-01-13T10:30:38.811Z,0.90
2019-01-13T10:33:07.947Z,0.93
2019-01-13T10:35:37.380Z,0.87
2019-01-13T10:38:06.519Z,0.73
2019-01-13T10:40:35.612Z,0.83
2019-01-13T10:43:04.812Z,0.80
2019-01-13T10:45:53.371Z,0.80
2019-01-13T10:48:22.454Z,0.70
2019-01-13T10:51:10.760Z,0.70
2019-01-13T10:53:40.175Z,0.50
2019-01-13T10:56:09.319Z,0.70
2019-01-13T10:58:38.747Z,0.70
2019-01-13T11:01:07.879Z,1.47
2019-01-13T11:03:37.802Z,0.70
2019-01-13T11:06:06.936Z,0.80
2019-01-13T11:08:36.068Z,1.00
2019-01-13T11:11:05.315Z,0.60
2019-01-13T11:13:34.370Z,0.60
2019-01-13T11:16:03.849Z,0.60
2019-01-13T11:18:32.903Z,0.73
2019-01-13T11:21:02.059Z,0.60
2019-01-13T11:23:31.223Z,0.53
2019-01-13T11:26:00.697Z,0.50
2019-01-13T11:28:29.834Z,0.80
2019-01-13T11:30:58.953Z,0.50
2019-01-13T11:33:28.011Z,0.87
2019-01-13T11:35:57.246Z,0.70
2019-01-13T11:38:26.397Z,0.80
2019-01-13T11:40:55.496Z,0.80
2019-01-13T11:43:24.628Z,0.70
2019-01-13T11:45:53.727Z,0.80
2019-01-13T11:48:23.212Z,0.60
2019-01-13T11:50:52.418Z,0.53
2019-01-13T11:53:21.480Z,0.70
2019-01-13T11:55:50.642Z,0.73
2019-01-13T11:58:19.800Z,0.60
2019-01-13T12:00:49.660Z,0.50
2019-01-13T12:03:19.184Z,1.30
2019-01-13T12:05:48.286Z,0.70
2019-01-13T12:08:17.679Z,0.53
2019-01-13T12:10:46.791Z,0.70
2019-01-13T12:13:15.928Z,1.00
2019-01-13T12:15:45.110Z,0.77
2019-01-13T12:18:14.255Z,0.40
2019-01-13T12:20:43.423Z,0.70
2019-01-13T12:23:12.564Z,0.60
2019-01-13T12:25:42.339Z,0.60
2019-01-13T12:28:11.723Z,0.50
2019-01-13T12:30:40.957Z,0.60
2019-01-13T12:33:10.393Z,0.60
2019-01-13T12:35:39.509Z,0.73
2019-01-13T12:38:09.037Z,0.60
2019-01-13T12:40:38.198Z,0.40
2019-01-13T12:43:07.623Z,0.57
2019-01-13T12:45:36.798Z,0.90
2019-01-13T12:48:06.276Z,0.60
2019-01-13T12:50:35.447Z,0.87
2019-01-13T12:53:04.796Z,0.60
2019-01-13T12:55:33.909Z,0.60
2019-01-13T12:58:03.062Z,0.60
2019-01-13T13:00:32.237Z,0.87
2019-01-13T13:03:01.439Z,0.60
2019-01-13T13:05:30.617Z,0.47
2019-01-13T13:07:59.750Z,0.60
2019-01-13T13:10:48.051Z,0.70
2019-01-13T13:13:17.163Z,0.70
2019-01-13T13:15:46.346Z,0.50
2019-01-13T13:18:15.483Z,0.70
2019-01-13T13:20:44.670Z,0.53
2019-01-13T13:23:13.840Z,0.50
2019-01-13T13:25:43.012Z,0.47
2019-01-13T13:28:12.147Z,0.80
2019-01-13T13:30:41.331Z,0.97
2019-01-13T13:33:10.465Z,0.50
2019-01-13T13:35:40.222Z,0.63
2019-01-13T13:38:09.456Z,0.40
2019-01-13T13:40:38.644Z,0.50
2019-01-13T13:43:07.902Z,0.70
2019-01-13T13:45:37.336Z,0.60
2019-01-13T13:48:06.491Z,0.60
2019-01-13T13:50:35.672Z,0.70
2019-01-13T13:53:05.035Z,0.80
2019-01-13T13:55:34.310Z,0.60
2019-01-13T13:58:03.481Z,0.73
2019-01-13T14:00:36.618Z,0.50
2019-01-13T14:15:26.987Z,0.60
2019-01-13T14:17:56.062Z,0.73
2019-01-13T14:20:25.231Z,0.80
2019-01-13T14:22:54.283Z,0.97
2019-01-13T14:25:23.683Z,0.60
2019-01-13T14:27:52.805Z,0.80
2019-01-13T14:30:23.017Z,0.70
2019-01-13T14:32:52.199Z,0.70
2019-01-13T14:35:21.373Z,0.60
2019-01-13T14:40:20.406Z,0.90
2019-01-13T14:42:49.684Z,0.55
2019-01-13T14:45:22.735Z,0.70
2019-01-13T14:50:21.860Z,0.60
2019-01-13T14:52:51.419Z,0.90
2019-01-13T14:55:20.561Z,0.93
2019-01-13T15:00:22.352Z,0.60
2019-01-13T15:02:51.937Z,0.60
2019-01-13T15:05:21.533Z,0.70
2019-01-13T15:07:50.705Z,0.70
2019-01-13T15:10:19.997Z,1.00
2019-01-13T15:12:49.208Z,0.43
2019-01-13T15:15:18.389Z,0.90
2019-01-13T15:17:47.939Z,0.70
2019-01-13T15:20:18.460Z,0.70
2019-01-13T15:22:47.916Z,0.90
2019-01-13T15:25:18.914Z,0.70
2019-01-13T15:27:48.066Z,1.00
2019-01-13T15:30:24.536Z,0.80
2019-01-13T15:32:53.608Z,0.73
2019-01-13T15:35:23.029Z,1.03
2019-01-13T15:37:52.182Z,0.93
2019-01-13T15:40:21.477Z,0.70
2019-01-13T15:42:50.544Z,1.00
2019-01-13T15:45:20.082Z,0.80
2019-01-13T15:47:49.145Z,0.63
2019-01-13T15:50:19.543Z,0.87
2019-01-13T15:52:48.913Z,0.60
2019-01-13T15:55:18.139Z,0.67
2019-01-13T15:57:47.334Z,0.70
2019-01-13T16:00:20.688Z,0.67
2019-01-13T16:02:49.804Z,0.60
2019-01-13T16:05:19.105Z,0.80
2019-01-13T16:07:48.257Z,0.63
2019-01-13T16:10:18.483Z,0.60
2019-01-13T16:12:47.623Z,0.70
2019-01-13T16:15:16.827Z,0.93
2019-01-13T16:17:45.988Z,0.50
2019-01-13T16:20:40.607Z,0.93
2019-01-13T16:23:18.012Z,0.67
2019-01-13T16:25:47.435Z,0.60
2019-01-13T16:28:16.567Z,0.60
2019-01-13T16:30:45.839Z,0.70
2019-01-13T16:33:14.941Z,0.70
2019-01-13T16:35:44.035Z,0.67
2019-01-13T16:38:13.107Z,0.67
2019-01-13T16:40:42.295Z,0.70
2019-01-13T16:43:11.640Z,0.80
2019-01-13T16:45:41.099Z,0.60
2019-01-13T16:48:10.316Z,0.40
2019-01-13T16:50:39.409Z,0.87
2019-01-13T16:53:08.544Z,0.67
2019-01-13T16:55:37.949Z,0.70
2019-01-13T16:58:07.088Z,0.80
2019-01-13T17:03:06.383Z,0.90
2019-01-13T17:05:35.592Z,1.07
2019-01-13T17:08:04.844Z,0.70
2019-01-13T17:10:34.197Z,1.30
2019-01-13T17:13:03.396Z,1.00
2019-01-13T17:15:34.651Z,1.00
2019-01-13T17:18:05.308Z,0.97
2019-01-13T17:20:34.600Z,1.10
2019-01-13T17:23:04.083Z,1.03
2019-01-13T17:25:33.541Z,0.90
2019-01-13T17:28:02.671Z,1.00
2019-01-13T17:30:32.773Z,1.03
2019-01-13T17:33:02.017Z,0.63
2019-01-13T17:35:31.699Z,1.13
2019-01-13T17:38:01.459Z,0.90
2019-01-13T17:40:31.195Z,1.00
2019-01-13T17:43:00.485Z,1.10
2019-01-13T17:45:30.640Z,1.00
2019-01-13T17:48:00.009Z,0.90
2019-01-13T17:50:29.732Z,1.00
2019-01-13T17:52:59.346Z,1.20
2019-01-13T17:55:29.421Z,1.03
2019-01-13T17:57:59.082Z,1.10
2019-01-13T18:00:38.235Z,1.00
2019-01-13T18:03:08.417Z,1.07
2019-01-13T18:05:37.630Z,1.27
2019-01-13T18:08:07.076Z,1.20
2019-01-13T18:10:36.147Z,1.10
2019-01-13T18:13:05.279Z,1.80
2019-01-13T18:15:34.460Z,1.20
2019-01-13T18:18:03.594Z,1.07
2019-01-13T18:20:32.655Z,1.23
2019-01-13T18:23:01.782Z,1.10
2019-01-13T18:25:31.158Z,1.60
2019-01-13T18:28:00.292Z,1.30
2019-01-13T18:30:29.459Z,1.30
2019-01-13T18:32:58.576Z,1.37
2019-01-13T18:35:27.991Z,1.50
2019-01-13T18:37:57.051Z,1.50
2019-01-13T18:40:26.499Z,1.13
2019-01-13T18:42:55.895Z,1.20
2019-01-13T18:45:25.089Z,1.57
2019-01-13T18:47:54.223Z,1.40
2019-01-13T18:50:23.621Z,1.10
2019-01-13T18:52:54.943Z,1.23
2019-01-13T18:55:24.343Z,1.33
2019-01-13T18:57:53.403Z,1.37
2019-01-13T19:00:22.627Z,1.47
2019-01-13T19:02:51.780Z,1.23
2019-01-13T19:05:21.593Z,1.40
2019-01-13T19:07:50.750Z,2.03
2019-01-13T19:10:39.892Z,1.90
2019-01-13T19:13:17.632Z,1.80
2019-01-13T19:15:47.505Z,1.80
2019-01-13T19:18:16.608Z,2.43
2019-01-13T19:20:45.791Z,2.03
2019-01-13T19:23:16.848Z,2.37
2019-01-13T19:25:46.005Z,2.30
2019-01-13T19:28:15.075Z,2.40
2019-01-13T19:30:44.475Z,2.30
2019-01-13T19:33:13.665Z,2.30
2019-01-13T19:35:42.804Z,3.07
2019-01-13T19:38:11.933Z,2.60
2019-01-13T19:40:41.132Z,3.00
2019-01-13T19:43:10.539Z,2.53
2019-01-13T19:45:39.741Z,2.70
2019-01-13T19:48:08.922Z,2.60
2019-01-13T19:50:37.987Z,3.03
2019-01-13T19:53:07.440Z,2.60
2019-01-13T19:55:36.657Z,3.00
2019-01-13T19:58:05.848Z,3.17
2019-01-13T20:00:35.530Z,2.50
2019-01-13T20:03:05.696Z,3.63
2019-01-13T20:05:34.871Z,3.40
2019-01-13T20:08:04.240Z,2.70
2019-01-13T20:10:33.367Z,2.90
2019-01-13T20:13:02.504Z,3.10
2019-01-13T20:15:31.896Z,3.00
2019-01-13T20:18:01.002Z,3.20
2019-01-13T20:20:30.142Z,2.87
2019-01-13T20:22:59.479Z,2.90
2019-01-13T20:25:28.644Z,2.30
2019-01-13T20:27:58.193Z,2.90
2019-01-13T20:30:28.903Z,2.83
2019-01-13T20:32:58.079Z,2.57
2019-01-13T20:35:27.338Z,3.00
2019-01-13T20:37:56.504Z,2.77
2019-01-13T20:40:25.960Z,3.00
2019-01-13T20:42:55.107Z,2.63
2019-01-13T20:45:28.818Z,2.43
2019-01-13T20:47:57.883Z,2.30
2019-01-13T20:50:27.074Z,2.80
2019-01-13T20:52:56.503Z,2.40
2019-01-13T20:55:25.891Z,3.07
2019-01-13T20:57:54.939Z,1.83
2019-01-13T21:00:24.282Z,1.90
2019-01-13T21:02:53.679Z,1.77
2019-01-13T21:05:26.959Z,1.83
2019-01-13T21:07:54.608Z,1.47
2019-01-13T21:10:24.028Z,1.63
2019-01-13T21:12:53.172Z,1.40
2019-01-13T21:22:47.593Z,1.10
2019-01-13T21:25:16.803Z,1.33
2019-01-13T21:27:46.615Z,1.50
2019-01-13T21:30:20.110Z,1.20
2019-01-13T21:32:49.316Z,1.40
2019-01-13T21:35:18.536Z,1.50
2019-01-13T21:37:47.716Z,1.20
2019-01-13T21:40:16.872Z,1.50
2019-01-13T21:42:46.401Z,1.23
2019-01-13T21:45:16.421Z,1.47
2019-01-13T21:47:45.806Z,1.33
2019-01-13T21:50:16.047Z,1.00
2019-01-13T21:52:45.458Z,1.27
2019-01-13T21:55:14.946Z,1.10
2019-01-13T21:57:44.087Z,1.63
2019-01-13T22:00:15.487Z,1.20
2019-01-13T22:02:44.879Z,1.33
2019-01-13T22:05:14.040Z,1.60
2019-01-13T22:07:43.186Z,3.93
2019-01-13T22:10:13.604Z,1.37
2019-01-13T22:12:42.741Z,1.57
2019-01-13T22:15:13.080Z,1.63
2019-01-13T22:17:42.238Z,1.70
2019-01-13T22:20:12.580Z,1.30
2019-01-13T22:22:41.918Z,1.20
2019-01-13T22:25:11.212Z,1.50
2019-01-13T22:27:40.356Z,1.43
2019-01-13T22:30:11.407Z,1.50
2019-01-13T22:32:40.599Z,1.20
2019-01-13T22:35:10.022Z,1.10
2019-01-13T22:37:39.464Z,1.30
2019-01-13T22:40:10.705Z,1.30
2019-01-13T22:42:39.872Z,1.00
2019-01-13T22:45:09.748Z,1.00
2019-01-13T22:47:39.126Z,1.57
2019-01-13T22:50:09.718Z,1.30
2019-01-13T22:52:38.873Z,1.20
2019-01-13T22:55:08.506Z,1.10
2019-01-13T22:57:37.650Z,0.80
2019-01-13T23:00:20.170Z,0.80
2019-01-13T23:02:49.270Z,1.10
2019-01-13T23:05:18.356Z,1.13
2019-01-13T23:07:47.544Z,1.10
2019-01-13T23:10:16.623Z,0.87
2019-01-13T23:12:45.943Z,1.10
2019-01-13T23:15:15.035Z,0.87
2019-01-13T23:17:44.131Z,1.20
2019-01-13T23:20:13.435Z,0.83
2019-01-13T23:22:42.583Z,1.07
2019-01-13T23:25:11.904Z,0.90
2019-01-13T23:27:40.955Z,1.33
2019-01-13T23:30:10.104Z,0.80
2019-01-13T23:32:39.305Z,1.10
2019-01-13T23:35:08.455Z,1.00
2019-01-13T23:37:37.781Z,0.70
2019-01-13T23:40:07.303Z,1.00
2019-01-13T23:42:36.803Z,1.07
2019-01-13T23:45:06.050Z,0.97
2019-01-13T23:47:35.175Z,1.03
2019-01-13T23:50:05.062Z,0.77
2019-01-13T23:52:34.259Z,0.50
2019-01-13T23:55:03.578Z,0.50
2019-01-13T23:57:32.762Z,0.50
